TimeCDT,TemperatureF,Dew PointF,Humidity,Sea Level PressureIn,VisibilityMPH,Wind Direction,Wind SpeedMPH,Gust SpeedMPH,PrecipitationIn,Events,Conditions,WindDirDegrees,DateUTC
12:02 AM,55.4,55.4,100,29.76,6.0,East,16.1,-,0.03,Rain,Rain,90,2013-05-28 05:02:00
12:39 AM,55.4,55.4,100,29.73,6.0,East,18.4,25.3,0.13,Rain-Thunderstorm,Rain,100,2013-05-28 05:39:00
12:53 AM,55.9,55.0,97,29.70,8.0,East,21.9,27.6,0.17,Rain,Rain,100,2013-05-28 05:53:00
1:53 AM,57.0,55.0,93,29.61,10.0,East,19.6,28.8,0.07,,Partly Cloudy,90,2013-05-28 06:53:00
2:53 AM,55.9,53.1,90,29.65,10.0,SW,9.2,-,N/A,,Clear,230,2013-05-28 07:53:00
3:53 AM,55.9,54.0,93,29.68,10.0,WSW,8.1,-,N/A,,Clear,240,2013-05-28 08:53:00
4:53 AM,55.0,53.1,93,29.68,10.0,WSW,8.1,-,N/A,,Clear,250,2013-05-28 09:53:00
5:53 AM,55.0,53.1,93,29.68,10.0,WSW,9.2,-,N/A,,Clear,240,2013-05-28 10:53:00
6:53 AM,55.0,53.1,93,29.68,10.0,WSW,12.7,-,N/A,,Clear,240,2013-05-28 11:53:00
7:53 AM,57.0,54.0,89,29.66,10.0,West,11.5,-,N/A,,Clear,260,2013-05-28 12:53:00
8:53 AM,57.9,55.0,90,29.68,10.0,West,17.3,-,N/A,,Partly Cloudy,280,2013-05-28 13:53:00
9:53 AM,61.0,54.0,78,29.70,10.0,West,12.7,-,N/A,,Clear,270,2013-05-28 14:53:00
10:53 AM,64.0,54.0,70,29.70,10.0,WNW,10.4,-,N/A,,Clear,290,2013-05-28 15:53:00
11:53 AM,66.0,53.1,63,29.69,10.0,West,8.1,-,N/A,,Clear,270,2013-05-28 16:53:00
12:53 PM,69.1,52.0,54,29.68,10.0,NW,9.2,-,N/A,,Clear,320,2013-05-28 17:53:00
1:53 PM,70.0,53.1,55,29.69,10.0,West,4.6,-,N/A,,Clear,280,2013-05-28 18:53:00
2:53 PM,72.0,53.1,51,29.68,10.0,WNW,4.6,-,N/A,,Clear,300,2013-05-28 19:53:00
3:53 PM,73.0,52.0,48,29.67,10.0,Variable,3.5,-,N/A,,Clear,0,2013-05-28 20:53:00
4:53 PM,75.0,54.0,48,29.65,10.0,NNE,5.8,-,N/A,,Clear,20,2013-05-28 21:53:00
5:53 PM,73.9,54.0,50,29.64,10.0,ESE,5.8,-,N/A,,Clear,110,2013-05-28 22:53:00
6:53 PM,71.1,55.0,57,29.65,10.0,SE,4.6,-,N/A,,Clear,140,2013-05-28 23:53:00
7:53 PM,69.1,59.0,70,29.64,10.0,ESE,5.8,-,N/A,,Clear,120,2013-05-29 00:53:00
8:53 PM,64.9,55.0,70,29.62,10.0,ESE,5.8,-,N/A,,Clear,110,2013-05-29 01:53:00
9:53 PM,66.0,53.1,63,29.65,10.0,South,3.5,-,N/A,,Partly Cloudy,180,2013-05-29 02:53:00
10:53 PM,64.0,57.0,78,29.74,10.0,SW,15.0,21.9,0.00,Rain,Light Rain,220,2013-05-29 03:53:00
11:01 PM,62.6,57.2,82,29.76,8.0,SW,12.7,21.9,0.02,Rain-Thunderstorm,Rain,230,2013-05-29 04:01:00
11:35 PM,60.8,57.2,88,29.74,5.0,SSW,6.9,-,0.11,Rain,Rain,210,2013-05-29 04:35:00
11:53 PM,60.1,57.9,93,29.72,6.0,SSE,4.6,-,0.15,Rain,Rain,160,2013-05-29 04:53:00